Time;durP1;ratioP1;P1;durP2;ratioP2;P2;SDS_P1;SDS_P2;PMS_P1;PMS_P2;Temp;Humidity;BMP_temperature;BMP_pressure;BME280_temperature;BME280_humidity;BME280_pressure;Samples;Min_cycle;Max_cycle;Signal;HPM_P1;HPM_P2
2023/01/02 00:01:46;;;;;;;3.83;2.03;;;6.80;99.60;;;;;;4134611;28;20215;-62
2023/01/02 00:03:46;;;;;;;5.57;1.90;;;6.80;99.90;;;;;;4130092;28;20186;-63
2023/01/02 00:05:47;;;;;;;3.90;2.50;;;6.80;99.90;;;;;;4134584;28;20244;-64
2023/01/02 00:07:48;;;;;;;5.03;2.63;;;6.70;99.90;;;;;;4143550;28;20276;-63
2023/01/02 00:09:48;;;;;;;5.13;2.10;;;6.60;99.90;;;;;;4134346;28;20218;-64
2023/01/02 00:11:49;;;;;;;6.60;2.07;;;6.60;99.90;;;;;;4144345;28;20887;-64
2023/01/02 00:13:49;;;;;;;4.67;2.13;;;6.40;99.90;;;;;;4133889;28;20252;-64
2023/01/02 00:15:50;;;;;;;4.87;2.00;;;6.30;99.90;;;;;;4144125;28;20224;-63
2023/01/02 00:17:51;;;;;;;3.67;1.80;;;6.30;99.90;;;;;;4133169;28;20191;-64
2023/01/02 00:19:51;;;;;;;3.23;1.93;;;6.20;99.90;;;;;;4128536;28;20216;-65
2023/01/02 00:21:52;;;;;;;3.97;1.73;;;6.20;99.90;;;;;;4133781;28;20178;-63
2023/01/02 00:23:53;;;;;;;6.13;2.03;;;6.30;99.90;;;;;;4145344;28;20189;-62
2023/01/02 00:25:53;;;;;;;4.00;1.90;;;6.40;99.90;;;;;;4147691;28;20192;-63
2023/01/02 00:27:55;;;;;;;2.30;1.63;;;6.40;99.90;;;;;;4132908;28;20213;-63
2023/01/02 00:29:56;;;;;;;2.63;1.93;;;6.40;99.90;;;;;;4144754;28;20209;-63
2023/01/02 00:31:56;;;;;;;5.07;1.77;;;6.50;99.90;;;;;;4133036;28;20540;-63
2023/01/02 00:33:57;;;;;;;4.03;1.60;;;6.60;99.90;;;;;;4145207;28;20189;-63
2023/01/02 00:35:58;;;;;;;5.13;1.60;;;6.70;99.70;;;;;;4132704;28;20228;-66
2023/01/02 00:37:58;;;;;;;2.63;1.83;;;6.70;99.50;;;;;;4144555;28;20198;-63
2023/01/02 00:39:59;;;;;;;5.40;2.20;;;6.80;99.00;;;;;;4132160;28;20236;-62
2023/01/02 00:42:00;;;;;;;3.27;2.00;;;6.70;99.00;;;;;;4127688;28;20187;-63
2023/01/02 00:44:00;;;;;;;2.23;1.67;;;6.90;98.70;;;;;;4132271;28;20225;-63
2023/01/02 00:46:01;;;;;;;3.23;1.90;;;7.00;98.30;;;;;;4145159;28;20201;-63
2023/01/02 00:48:02;;;;;;;3.63;1.97;;;7.00;98.00;;;;;;4131337;28;20186;-63
2023/01/02 00:50:03;;;;;;;4.40;2.00;;;7.00;97.50;;;;;;4131146;28;20202;-63
2023/01/02 00:52:04;;;;;;;5.70;2.03;;;7.10;97.60;;;;;;4128606;28;20822;-64
2023/01/02 00:54:05;;;;;;;3.77;2.13;;;7.00;97.50;;;;;;4131127;28;20251;-64
2023/01/02 00:56:06;;;;;;;3.20;1.60;;;7.10;97.00;;;;;;4145653;28;20213;-64
2023/01/02 00:58:06;;;;;;;4.57;2.10;;;7.00;97.40;;;;;;4130304;28;20269;-64
2023/01/02 01:00:07;;;;;;;4.30;1.90;;;7.10;97.30;;;;;;4145626;28;20484;-63
2023/01/02 01:02:08;;;;;;;4.83;1.93;;;7.20;96.20;;;;;;4130999;28;20190;-64
2023/01/02 01:04:09;;;;;;;5.87;1.70;;;7.30;96.10;;;;;;4146109;28;20618;-65
2023/01/02 01:06:10;;;;;;;3.37;2.27;;;7.30;96.40;;;;;;4130491;28;20209;-65
2023/01/02 01:08:10;;;;;;;6.23;2.43;;;7.40;95.90;;;;;;4145769;28;20690;-65
2023/01/02 01:10:11;;;;;;;6.03;2.27;;;7.40;95.40;;;;;;4130253;28;20206;-63
2023/01/02 01:12:12;;;;;;;1.90;1.23;;;7.50;95.00;;;;;;4114069;28;20240;-62
2023/01/02 01:14:12;;;;;;;6.17;2.20;;;7.90;93.20;;;;;;4146008;28;20276;-63
2023/01/02 01:16:16;;;;;;;6.27;2.23;;;8.20;92.20;;;;;;4128601;28;20685;-62
2023/01/02 01:18:17;;;;;;;3.27;1.40;;;8.30;92.30;;;;;;4097530;28;20187;-63
2023/01/02 01:20:18;;;;;;;4.00;1.60;;;8.20;91.70;;;;;;4145030;28;20239;-63
2023/01/02 01:22:18;;;;;;;4.90;2.13;;;8.40;91.00;;;;;;4130831;28;20193;-65
2023/01/02 01:24:19;;;;;;;3.40;1.73;;;8.50;90.80;;;;;;4141070;28;20183;-64
2023/01/02 01:26:21;;;;;;;4.03;1.80;;;8.70;90.00;;;;;;4144406;28;20607;-64
2023/01/02 01:28:21;;;;;;;4.00;1.60;;;8.70;89.80;;;;;;4131054;28;20192;-63
2023/01/02 01:30:22;;;;;;;3.90;1.50;;;8.90;88.40;;;;;;4144825;28;20679;-64
2023/01/02 01:32:23;;;;;;;2.63;1.50;;;8.80;89.40;;;;;;4131166;28;20675;-64
2023/01/02 01:34:24;;;;;;;5.53;1.93;;;8.70;89.90;;;;;;4144481;28;20221;-64
2023/01/02 01:36:24;;;;;;;5.20;1.67;;;8.60;90.40;;;;;;4130863;28;20217;-63
2023/01/02 01:38:25;;;;;;;2.40;1.33;;;8.40;90.90;;;;;;4144236;28;20181;-64
2023/01/02 01:40:26;;;;;;;2.37;1.20;;;8.50;90.80;;;;;;4132012;28;20689;-64
2023/01/02 01:42:32;;;;;;;2.53;1.30;;;8.50;91.00;;;;;;4144224;28;20187;-64
2023/01/02 01:44:49;;;;;;;3.03;1.30;;;8.40;91.30;;;;;;4128651;28;20190;-64
2023/01/02 01:46:49;;;;;;;2.43;1.30;;;8.30;91.10;;;;;;4140104;28;20186;-64
2023/01/02 01:49:11;;;;;;;5.30;1.40;;;8.10;92.60;;;;;;4134885;28;20741;-63
2023/01/02 01:51:13;;;;;;;5.23;1.60;;;8.10;93.00;;;;;;4138008;28;20235;-63
2023/01/02 01:53:17;;;;;;;2.63;1.50;;;8.10;93.80;;;;;;4124652;28;20250;-64
2023/01/02 01:55:28;;;;;;;2.23;1.20;;;8.00;94.10;;;;;;4112544;28;20238;-66
2023/01/02 01:57:43;;;;;;;4.67;1.30;;;8.00;94.80;;;;;;4129375;28;20209;-65
2023/01/02 01:59:44;;;;;;;3.67;1.30;;;8.10;95.00;;;;;;4112820;28;20199;-64
2023/01/02 02:01:47;;;;;;;4.50;1.33;;;8.20;95.10;;;;;;4112944;28;20273;-65
2023/01/02 02:03:49;;;;;;;2.93;1.17;;;8.10;94.80;;;;;;4112172;28;20187;-63
2023/01/02 02:05:50;;;;;;;3.13;1.17;;;8.30;93.30;;;;;;4112420;28;20531;-64
2023/01/02 02:08:07;;;;;;;1.73;1.10;;;8.50;92.80;;;;;;4128897;28;20252;-64
2023/01/02 02:10:10;;;;;;;2.60;1.37;;;8.40;92.90;;;;;;4110410;28;20202;-64
2023/01/02 02:12:12;;;;;;;1.93;1.27;;;8.40;92.70;;;;;;4129861;28;20269;-64
2023/01/02 02:14:13;;;;;;;2.73;1.20;;;8.40;92.30;;;;;;4129630;28;20186;-65
2023/01/02 02:16:16;;;;;;;2.03;1.30;;;8.50;92.00;;;;;;4129691;28;20603;-64
2023/01/02 02:19:23;;;;;;;6.03;2.00;;;8.50;92.20;;;;;;4129269;28;20234;-64
2023/01/02 02:21:54;;;;;;;3.30;1.10;;;8.50;92.20;;;;;;4064052;29;20734;-64
2023/01/02 02:24:26;;;;;;;1.50;1.20;;;8.50;92.30;;;;;;4115724;28;20210;-64
2023/01/02 02:26:46;;;;;;;1.40;1.10;;;8.40;92.20;;;;;;4129472;28;20174;-64
2023/01/02 02:29:09;;;;;;;2.80;1.20;;;8.40;92.30;;;;;;4129929;28;20266;-65
2023/01/02 02:31:37;;;;;;;3.57;1.70;;;8.30;93.10;;;;;;4130355;28;20185;-64
2023/01/02 02:33:57;;;;;;;3.37;1.20;;;8.10;93.50;;;;;;4112377;28;20259;-64
2023/01/02 02:36:31;;;;;;;2.90;1.20;;;8.00;94.00;;;;;;4112047;28;20211;-64
2023/01/02 02:38:57;;;;;;;2.57;1.20;;;7.90;94.60;;;;;;4107309;28;20199;-64
2023/01/02 02:41:15;;;;;;;3.83;1.47;;;7.80;95.00;;;;;;4129547;28;20169;-64
2023/01/02 02:44:25;;;;;;;4.30;1.30;;;7.80;94.90;;;;;;4133728;28;20437;-65
2023/01/02 02:46:50;;;;;;;2.23;1.17;;;7.70;96.20;;;;;;4084072;29;20199;-64
2023/01/02 02:49:04;;;;;;;4.20;1.30;;;7.70;96.30;;;;;;4068866;29;20835;-64
2023/01/02 02:51:12;;;;;;;2.27;1.30;;;7.70;96.10;;;;;;4080496;28;20205;-65
2023/01/02 02:53:21;;;;;;;4.60;1.40;;;7.60;96.10;;;;;;4117270;28;20418;-65
2023/01/02 02:55:29;;;;;;;3.73;1.43;;;7.60;96.20;;;;;;4117446;28;20301;-65
2023/01/02 02:57:31;;;;;;;3.13;1.43;;;7.50;96.10;;;;;;4084913;29;20237;-65
2023/01/02 02:59:34;;;;;;;1.73;1.20;;;7.60;96.30;;;;;;4117325;28;20210;-64
2023/01/02 03:01:35;;;;;;;4.03;1.60;;;7.50;96.30;;;;;;4117555;28;20469;-63
2023/01/02 03:03:36;;;;;;;1.23;1.00;;;7.40;96.20;;;;;;4134905;28;20944;-64
2023/01/02 03:05:39;;;;;;;2.43;1.20;;;7.50;96.30;;;;;;4112164;28;20198;-64
2023/01/02 03:08:22;;;;;;;1.20;1.00;;;7.50;96.30;;;;;;4132608;28;20220;-63
2023/01/02 03:10:46;;;;;;;1.80;1.10;;;7.50;96.50;;;;;;4100726;29;20662;-64
2023/01/02 03:13:10;;;;;;;2.97;1.40;;;7.40;96.60;;;;;;4118609;28;20460;-65
2023/01/02 03:15:45;;;;;;;3.10;1.23;;;7.40;96.70;;;;;;4101227;29;20917;-66
2023/01/02 03:18:11;;;;;;;3.37;1.10;;;7.40;96.80;;;;;;4113938;28;20542;-63
2023/01/02 03:20:17;;;;;;;3.17;0.93;;;7.30;96.70;;;;;;4101606;29;20442;-63
2023/01/02 03:22:30;;;;;;;3.80;1.27;;;7.40;96.60;;;;;;4116010;28;20457;-63
2023/01/02 03:24:33;;;;;;;3.93;1.00;;;7.40;96.60;;;;;;4133540;28;20433;-64
2023/01/02 03:26:38;;;;;;;2.37;1.10;;;7.40;96.50;;;;;;4132652;28;20432;-63
2023/01/02 03:28:41;;;;;;;2.30;1.10;;;7.60;96.60;;;;;;4101300;28;20501;-63
2023/01/02 03:30:44;;;;;;;2.73;1.20;;;7.70;97.00;;;;;;4101817;29;21185;-64
2023/01/02 03:32:54;;;;;;;1.23;1.13;;;7.70;96.70;;;;;;4133388;28;20428;-63
2023/01/02 03:34:55;;;;;;;2.83;1.27;;;7.70;96.80;;;;;;4118779;28;20426;-64
2023/01/02 03:37:17;;;;;;;4.57;1.30;;;7.70;96.70;;;;;;4118015;28;20669;-64
2023/01/02 03:39:22;;;;;;;2.80;1.40;;;7.70;96.40;;;;;;4085718;29;20207;-63
2023/01/02 03:41:32;;;;;;;2.57;1.30;;;7.60;96.70;;;;;;4118840;28;20442;-64
2023/01/02 03:43:37;;;;;;;1.60;1.20;;;7.50;97.00;;;;;;4118631;28;20418;-63
2023/01/02 03:45:47;;;;;;;3.97;1.20;;;7.40;97.00;;;;;;4133809;28;20564;-63
2023/01/02 03:47:56;;;;;;;4.17;1.40;;;7.40;96.90;;;;;;4132740;28;20428;-64
2023/01/02 03:50:06;;;;;;;1.50;1.10;;;7.40;96.90;;;;;;4133381;28;20201;-64
2023/01/02 03:52:06;;;;;;;2.43;1.37;;;7.30;97.20;;;;;;4133277;28;20831;-64
2023/01/02 03:54:08;;;;;;;2.30;1.40;;;7.30;97.00;;;;;;4099850;28;20230;-63
2023/01/02 03:56:28;;;;;;;4.57;1.53;;;7.30;96.90;;;;;;4115847;28;20780;-64
2023/01/02 03:58:52;;;;;;;4.60;1.63;;;7.20;97.20;;;;;;4114456;28;20466;-64
2023/01/02 04:01:10;;;;;;;3.83;1.50;;;7.10;97.40;;;;;;4130679;28;20457;-64
2023/01/02 04:03:20;;;;;;;3.77;1.60;;;7.10;97.80;;;;;;4130621;28;20414;-64
2023/01/02 04:06:10;;;;;;;2.30;1.50;;;7.00;98.20;;;;;;4130487;28;20429;-64
2023/01/02 04:08:50;;;;;;;2.40;1.63;;;6.90;98.50;;;;;;4129856;28;20437;-63
2023/01/02 04:10:56;;;;;;;2.53;1.60;;;6.90;98.90;;;;;;4098644;29;20451;-64
2023/01/02 04:13:04;;;;;;;1.83;1.30;;;6.90;98.90;;;;;;4098704;29;20855;-64
2023/01/02 04:15:11;;;;;;;3.47;1.30;;;6.80;99.20;;;;;;4115649;28;20569;-64
2023/01/02 04:17:15;;;;;;;3.77;1.40;;;6.80;99.30;;;;;;4097534;29;20462;-64
2023/01/02 04:19:26;;;;;;;4.10;1.50;;;6.90;99.30;;;;;;4098239;29;20458;-64
2023/01/02 04:21:32;;;;;;;1.57;1.33;;;7.00;99.10;;;;;;4098496;29;20822;-63
2023/01/02 04:23:40;;;;;;;3.83;1.73;;;6.90;99.30;;;;;;4130290;28;20435;-63
2023/01/02 04:25:56;;;;;;;1.67;1.37;;;6.90;99.40;;;;;;4098626;29;20421;-62
2023/01/02 04:28:08;;;;;;;3.37;1.30;;;6.80;99.30;;;;;;4098021;29;20438;-63
2023/01/02 04:30:09;;;;;;;2.93;1.30;;;6.80;99.40;;;;;;4098779;29;20455;-62
2023/01/02 04:32:23;;;;;;;4.53;1.53;;;6.80;99.70;;;;;;4115406;28;20430;-63
2023/01/02 04:34:27;;;;;;;3.07;1.63;;;6.80;99.20;;;;;;4098125;29;20499;-63
2023/01/02 04:36:28;;;;;;;3.93;1.77;;;6.60;99.30;;;;;;4129245;28;20955;-63
2023/01/02 04:38:29;;;;;;;7.13;1.70;;;6.60;99.30;;;;;;4131817;28;20441;-62
2023/01/02 04:40:30;;;;;;;2.00;1.50;;;6.60;99.40;;;;;;4114232;28;20211;-62
2023/01/02 04:42:30;;;;;;;5.13;1.50;;;6.50;99.60;;;;;;4131512;28;20189;-63
2023/01/02 04:44:31;;;;;;;3.33;1.23;;;6.40;99.90;;;;;;4113929;28;20917;-63
2023/01/02 04:46:32;;;;;;;3.67;1.60;;;6.30;99.90;;;;;;4113246;28;20823;-62
2023/01/02 04:48:32;;;;;;;2.57;1.73;;;6.30;99.90;;;;;;4131367;28;20565;-63
2023/01/02 04:50:33;;;;;;;4.43;1.80;;;6.40;99.90;;;;;;4130975;28;20210;-63
2023/01/02 04:52:34;;;;;;;4.10;1.80;;;6.50;99.90;;;;;;4131137;28;20194;-63
2023/01/02 04:54:35;;;;;;;2.30;1.60;;;6.40;99.90;;;;;;4097851;29;20275;-63
2023/01/02 04:56:35;;;;;;;2.47;1.83;;;6.40;99.90;;;;;;4130454;28;20218;-63
2023/01/02 04:58:36;;;;;;;4.20;2.30;;;6.30;99.90;;;;;;4131075;28;20187;-64
2023/01/02 05:00:37;;;;;;;6.53;2.40;;;6.40;99.90;;;;;;4131291;28;20202;-63
2023/01/02 05:02:38;;;;;;;8.20;3.00;;;6.30;99.90;;;;;;4113812;28;20182;-63
2023/01/02 05:04:39;;;;;;;6.10;2.80;;;6.30;99.90;;;;;;4124934;28;20202;-62
2023/01/02 05:06:40;;;;;;;4.07;2.57;;;6.20;99.90;;;;;;4113550;28;20620;-63
2023/01/02 05:08:41;;;;;;;4.33;2.50;;;6.20;99.90;;;;;;4114342;28;20203;-63
2023/01/02 05:10:41;;;;;;;5.40;2.90;;;6.20;99.90;;;;;;4097139;28;20714;-63
2023/01/02 05:12:42;;;;;;;4.63;2.80;;;6.20;99.90;;;;;;4114377;28;20493;-63
2023/01/02 05:14:43;;;;;;;6.27;2.77;;;6.30;99.90;;;;;;4114180;28;20190;-64
2023/01/02 05:16:43;;;;;;;6.63;2.50;;;6.30;99.90;;;;;;4126260;28;20294;-63
2023/01/02 05:18:44;;;;;;;4.47;2.60;;;6.30;99.90;;;;;;4130403;28;20190;-63
2023/01/02 05:20:45;;;;;;;5.57;2.93;;;6.40;99.90;;;;;;4130483;28;20209;-63
2023/01/02 05:25:05;;;;;;;5.63;2.97;;;6.50;99.90;;;;;;4130666;28;20197;-63
2023/01/02 05:27:05;;;;;;;9.03;2.17;;;6.50;99.90;;;;;;4130202;28;20992;-63
2023/01/02 05:29:06;;;;;;;3.27;2.27;;;6.50;99.90;;;;;;4130513;28;20433;-63
2023/01/02 05:31:07;;;;;;;5.53;2.17;;;6.50;99.90;;;;;;4130675;28;20201;-63
2023/01/02 05:33:08;;;;;;;4.30;2.40;;;6.40;99.90;;;;;;4130292;28;20625;-63
2023/01/02 05:35:08;;;;;;;4.83;2.33;;;6.50;99.90;;;;;;4130284;28;20688;-63
2023/01/02 05:37:09;;;;;;;2.20;1.70;;;6.50;99.90;;;;;;4112126;28;20342;-63
2023/01/02 05:39:11;;;;;;;4.40;2.30;;;6.40;99.90;;;;;;4130102;28;20517;-62
2023/01/02 05:41:13;;;;;;;4.13;2.07;;;6.40;99.90;;;;;;4130478;28;20191;-63
2023/01/02 05:43:14;;;;;;;4.20;1.97;;;6.30;99.90;;;;;;4129771;28;20435;-63
2023/01/02 05:45:15;;;;;;;4.57;1.90;;;6.40;99.90;;;;;;4129777;28;20421;-63
2023/01/02 05:47:16;;;;;;;4.30;2.00;;;6.50;99.90;;;;;;4111720;28;20224;-63
2023/01/02 05:49:16;;;;;;;6.53;2.13;;;6.60;99.90;;;;;;4128242;28;20214;-63
2023/01/02 05:51:17;;;;;;;5.00;1.77;;;6.60;99.90;;;;;;4129783;28;20499;-63
2023/01/02 05:53:18;;;;;;;4.07;2.10;;;6.60;99.90;;;;;;4129937;28;20190;-63
2023/01/02 05:55:19;;;;;;;3.60;2.00;;;6.60;99.70;;;;;;4129709;28;20229;-63
2023/01/02 05:57:19;;;;;;;4.03;2.37;;;6.50;99.70;;;;;;4129355;28;20262;-63
2023/01/02 05:59:20;;;;;;;4.83;2.27;;;6.40;99.70;;;;;;4129633;28;20282;-63
2023/01/02 06:01:27;;;;;;;2.43;1.60;;;6.30;99.90;;;;;;4129765;28;20185;-63
2023/01/02 06:03:27;;;;;;;4.43;1.70;;;6.30;99.90;;;;;;4112441;28;20177;-63
2023/01/02 06:05:28;;;;;;;4.13;1.60;;;6.30;99.90;;;;;;4112201;28;20513;-63
2023/01/02 06:07:29;;;;;;;2.70;1.63;;;6.40;99.90;;;;;;4128763;28;20202;-63
2023/01/02 06:09:29;;;;;;;2.20;1.57;;;6.40;99.90;;;;;;4129710;28;20241;-63
2023/01/02 06:11:31;;;;;;;2.80;1.70;;;6.30;99.90;;;;;;4129842;28;20190;-63
2023/01/02 06:13:34;;;;;;;2.87;1.57;;;6.20;99.90;;;;;;4112534;28;20183;-63
2023/01/02 06:15:35;;;;;;;5.80;1.80;;;6.30;99.90;;;;;;4129537;28;20425;-63
2023/01/02 06:17:36;;;;;;;1.70;1.40;;;6.30;99.90;;;;;;4128060;28;21133;-63
2023/01/02 06:19:37;;;;;;;4.27;1.80;;;6.30;99.90;;;;;;4129591;28;20210;-63
2023/01/02 06:21:37;;;;;;;4.30;1.60;;;6.20;99.90;;;;;;4129643;28;20665;-63
2023/01/02 06:23:39;;;;;;;5.03;1.40;;;6.20;99.90;;;;;;4129566;28;20193;-63
2023/01/02 06:25:40;;;;;;;2.93;1.30;;;6.20;99.90;;;;;;4129737;28;20197;-63
2023/01/02 06:27:40;;;;;;;3.20;1.30;;;6.30;99.90;;;;;;4129173;28;20423;-63
2023/01/02 06:29:41;;;;;;;2.97;1.37;;;6.30;99.90;;;;;;4129355;28;20260;-63
2023/01/02 06:31:42;;;;;;;1.63;1.20;;;6.30;99.90;;;;;;4129475;28;20658;-63
2023/01/02 06:33:43;;;;;;;2.17;1.43;;;6.30;99.90;;;;;;4129456;28;20640;-63
2023/01/02 06:35:44;;;;;;;2.70;1.50;;;6.30;99.90;;;;;;4129558;28;20705;-63
2023/01/02 06:37:44;;;;;;;2.47;1.80;;;6.30;99.90;;;;;;4129188;28;20429;-63
2023/01/02 06:39:45;;;;;;;2.23;1.40;;;6.20;99.90;;;;;;4129381;28;20298;-63
2023/01/02 06:41:46;;;;;;;2.47;1.40;;;6.20;99.90;;;;;;4129104;28;20238;-63
2023/01/02 06:43:49;;;;;;;3.77;1.30;;;6.10;99.90;;;;;;4129372;28;20178;-63
2023/01/02 06:45:49;;;;;;;4.17;1.53;;;6.10;99.90;;;;;;4129974;28;20186;-63
2023/01/02 06:47:59;;;;;;;2.83;1.60;;;6.20;99.90;;;;;;4111786;28;20489;-63
2023/01/02 06:49:59;;;;;;;4.97;2.23;;;6.00;99.90;;;;;;4129417;28;20851;-63
2023/01/02 06:52:00;;;;;;;4.23;2.80;;;5.90;99.90;;;;;;4111922;28;20442;-63
2023/01/02 06:54:01;;;;;;;6.17;4.03;;;5.90;99.90;;;;;;4128062;28;20249;-63
2023/01/02 06:56:03;;;;;;;5.67;3.10;;;5.90;99.90;;;;;;4129255;28;20209;-64
2023/01/02 06:58:04;;;;;;;5.20;2.77;;;6.00;99.90;;;;;;4111482;28;20195;-63
2023/01/02 07:00:05;;;;;;;7.80;3.40;;;6.00;99.90;;;;;;4112206;28;20450;-64
2023/01/02 07:02:06;;;;;;;4.40;2.93;;;6.00;99.90;;;;;;4129194;28;20468;-63
2023/01/02 07:04:16;;;;;;;7.37;3.30;;;6.00;99.90;;;;;;4129277;28;20432;-63
2023/01/02 07:06:20;;;;;;;5.70;3.30;;;6.10;99.90;;;;;;4129127;28;20194;-62
2023/01/02 07:08:21;;;;;;;9.23;3.43;;;6.10;99.90;;;;;;4111675;28;20438;-63
2023/01/02 07:10:21;;;;;;;10.60;3.40;;;6.10;99.90;;;;;;4112146;28;20512;-63
2023/01/02 07:12:22;;;;;;;7.00;2.90;;;6.10;99.90;;;;;;4128052;28;20194;-63
2023/01/02 07:14:23;;;;;;;8.67;4.97;;;6.20;99.90;;;;;;4115226;28;20193;-62
2023/01/02 07:16:24;;;;;;;5.33;3.07;;;6.30;99.90;;;;;;4112561;28;20928;-62
2023/01/02 07:18:25;;;;;;;9.70;3.73;;;6.30;99.90;;;;;;4112913;28;20426;-64
2023/01/02 07:20:25;;;;;;;6.10;3.37;;;6.30;99.90;;;;;;4113060;28;20206;-64
2023/01/02 07:22:26;;;;;;;10.40;4.40;;;6.30;99.90;;;;;;4113233;28;20218;-65
2023/01/02 07:24:27;;;;;;;8.83;3.80;;;6.40;99.90;;;;;;4113355;28;20179;-64
2023/01/02 07:26:27;;;;;;;7.17;3.27;;;6.40;99.90;;;;;;4112485;28;20665;-64
2023/01/02 07:28:29;;;;;;;9.33;2.80;;;6.40;99.90;;;;;;4113690;28;20729;-65
2023/01/02 07:30:29;;;;;;;6.03;2.67;;;6.40;99.90;;;;;;4099181;29;20290;-65
2023/01/02 07:32:30;;;;;;;7.37;3.43;;;6.40;99.90;;;;;;4098878;29;20559;-65
2023/01/02 07:34:31;;;;;;;6.23;3.00;;;6.40;99.90;;;;;;4115727;28;20187;-65
2023/01/02 07:36:31;;;;;;;7.27;3.80;;;6.30;99.90;;;;;;4115284;28;20213;-65
2023/01/02 07:38:33;;;;;;;8.27;4.07;;;6.30;99.90;;;;;;4115790;28;20206;-63
2023/01/02 07:40:34;;;;;;;6.83;2.70;;;6.20;99.90;;;;;;4098822;29;20258;-65
2023/01/02 07:42:34;;;;;;;4.80;2.80;;;6.30;99.90;;;;;;4115743;28;20484;-65
2023/01/02 07:44:35;;;;;;;4.70;2.63;;;6.30;99.90;;;;;;4115613;28;20659;-65
2023/01/02 07:46:36;;;;;;;3.30;2.50;;;6.20;99.90;;;;;;4114866;28;20643;-65
2023/01/02 07:48:36;;;;;;;4.43;2.10;;;6.30;99.90;;;;;;4115618;28;20671;-65
2023/01/02 07:50:37;;;;;;;8.77;4.47;;;6.30;99.90;;;;;;4115530;28;20674;-65
2023/01/02 07:52:37;;;;;;;7.33;4.63;;;6.10;99.90;;;;;;4115823;28;20561;-64
2023/01/02 07:54:38;;;;;;;11.30;5.63;;;6.10;99.90;;;;;;4115626;28;20195;-64
2023/01/02 07:56:39;;;;;;;13.10;6.63;;;6.10;99.90;;;;;;4114778;28;20242;-65
2023/01/02 07:58:39;;;;;;;6.63;4.20;;;6.20;99.90;;;;;;4115310;28;20186;-63
2023/01/02 08:00:40;;;;;;;9.60;5.13;;;6.20;99.90;;;;;;4115486;28;20208;-64
2023/01/02 08:02:41;;;;;;;10.57;5.27;;;6.30;99.90;;;;;;4128321;28;20570;-65
2023/01/02 08:04:41;;;;;;;8.07;5.43;;;6.30;99.90;;;;;;4131502;28;20722;-65
2023/01/02 08:06:42;;;;;;;9.67;5.33;;;6.40;99.90;;;;;;4113314;28;20247;-65
2023/01/02 08:08:43;;;;;;;8.97;4.43;;;6.40;99.90;;;;;;4131224;28;20210;-64
2023/01/02 08:10:43;;;;;;;10.80;6.30;;;6.50;99.90;;;;;;4131594;28;20206;-65
2023/01/02 08:12:44;;;;;;;16.70;8.73;;;6.50;99.80;;;;;;4131283;28;20226;-64
2023/01/02 08:14:45;;;;;;;15.97;9.27;;;6.50;99.80;;;;;;4131366;28;20256;-64
2023/01/02 08:16:45;;;;;;;22.77;12.00;;;6.60;99.70;;;;;;4130543;28;20214;-64
2023/01/02 08:18:46;;;;;;;17.87;10.97;;;6.60;99.20;;;;;;4131083;28;20186;-65
2023/01/02 08:20:47;;;;;;;19.47;11.20;;;6.60;99.50;;;;;;4130959;28;20202;-64
2023/01/02 08:22:48;;;;;;;15.37;9.97;;;6.60;99.30;;;;;;4131261;28;20452;-64
2023/01/02 08:24:49;;;;;;;12.93;7.57;;;6.60;99.10;;;;;;4131267;28;20201;-64
2023/01/02 08:26:50;;;;;;;13.17;8.80;;;6.50;99.10;;;;;;4130507;28;20192;-65
2023/01/02 08:28:50;;;;;;;10.57;6.63;;;6.70;99.10;;;;;;4131283;28;20197;-64
2023/01/02 08:30:51;;;;;;;11.33;5.93;;;6.70;98.70;;;;;;4131287;28;20214;-65
2023/01/02 08:32:52;;;;;;;10.43;5.93;;;6.60;99.10;;;;;;4131076;28;20637;-65
2023/01/02 08:34:52;;;;;;;8.37;4.50;;;6.70;99.00;;;;;;4130996;28;20181;-65
2023/01/02 08:36:53;;;;;;;9.93;5.13;;;6.70;98.40;;;;;;4112988;28;20214;-64
2023/01/02 08:38:54;;;;;;;11.63;6.03;;;6.70;98.80;;;;;;4130973;28;20193;-65
2023/01/02 08:40:57;;;;;;;10.60;6.63;;;6.80;98.60;;;;;;4130262;28;20208;-65
2023/01/02 08:42:58;;;;;;;6.13;4.40;;;6.80;98.40;;;;;;4130879;28;20186;-65
2023/01/02 08:44:59;;;;;;;5.83;4.50;;;6.90;97.80;;;;;;4113483;28;20835;-65
2023/01/02 08:46:59;;;;;;;5.23;4.50;;;6.90;97.90;;;;;;4130251;28;20781;-65
2023/01/02 08:49:00;;;;;;;9.50;4.77;;;7.00;98.00;;;;;;4130801;28;20561;-64
2023/01/02 08:51:02;;;;;;;5.73;4.50;;;7.00;98.10;;;;;;4130836;28;20602;-65
2023/01/02 08:53:03;;;;;;;4.33;3.23;;;7.10;97.80;;;;;;4130783;28;20487;-65
2023/01/02 08:55:04;;;;;;;7.77;4.00;;;7.20;97.60;;;;;;4130694;28;20441;-65
2023/01/02 08:57:05;;;;;;;5.27;3.37;;;7.40;97.70;;;;;;4129995;28;20360;-65
2023/01/02 08:59:09;;;;;;;5.27;2.90;;;7.60;97.30;;;;;;4130549;28;20225;-64
2023/01/02 09:01:10;;;;;;;7.07;3.57;;;7.80;96.70;;;;;;4113464;28;20179;-64
2023/01/02 09:03:10;;;;;;;6.07;3.20;;;7.80;96.00;;;;;;4130630;28;20558;-64
2023/01/02 09:05:11;;;;;;;6.30;3.03;;;7.70;96.60;;;;;;4130811;28;20375;-65
2023/01/02 09:07:12;;;;;;;8.50;2.87;;;7.80;96.80;;;;;;4129777;28;20201;-64
2023/01/02 09:09:15;;;;;;;7.23;3.17;;;7.90;96.60;;;;;;4130228;28;20190;-65
2023/01/02 09:11:21;;;;;;;4.33;2.90;;;8.00;96.20;;;;;;4113141;28;20195;-65
2023/01/02 09:13:22;;;;;;;3.33;2.60;;;8.20;95.40;;;;;;4113115;28;20194;-65
2023/01/02 09:15:23;;;;;;;6.27;3.57;;;8.30;95.50;;;;;;4130426;28;20185;-65
2023/01/02 09:17:23;;;;;;;5.63;3.40;;;8.40;95.00;;;;;;4129895;28;20284;-64
2023/01/02 09:19:25;;;;;;;6.37;2.97;;;8.30;95.50;;;;;;4130282;28;20232;-65
2023/01/02 09:21:26;;;;;;;5.33;3.20;;;8.30;95.70;;;;;;4111779;28;20179;-65
2023/01/02 09:23:27;;;;;;;5.20;3.00;;;8.40;95.40;;;;;;4116418;28;20194;-65
2023/01/02 09:25:28;;;;;;;7.50;3.10;;;8.50;94.90;;;;;;4114165;28;20194;-64
2023/01/02 09:27:29;;;;;;;3.23;2.57;;;8.60;94.10;;;;;;4113605;28;20570;-65
2023/01/02 09:29:29;;;;;;;4.30;2.37;;;8.60;95.10;;;;;;4114113;28;20578;-65
2023/01/02 09:31:30;;;;;;;5.63;2.60;;;8.80;94.00;;;;;;4114226;28;20677;-65
2023/01/02 09:33:31;;;;;;;3.17;2.80;;;8.90;92.90;;;;;;4096860;29;20195;-64
2023/01/02 09:35:33;;;;;;;3.50;2.40;;;8.90;92.60;;;;;;4113888;28;20210;-64
2023/01/02 09:37:34;;;;;;;2.87;2.20;;;9.20;93.20;;;;;;4113733;28;20278;-64
2023/01/02 09:39:35;;;;;;;5.53;2.30;;;9.30;93.20;;;;;;4114598;28;20284;-64
2023/01/02 09:41:47;;;;;;;3.40;2.60;;;9.40;92.10;;;;;;4114051;28;20215;-64
2023/01/02 09:43:55;;;;;;;6.87;2.90;;;9.40;92.60;;;;;;4096985;29;20701;-64
2023/01/02 09:45:59;;;;;;;6.03;3.40;;;9.60;91.90;;;;;;4096707;29;20179;-64
2023/01/02 09:48:00;;;;;;;5.67;3.87;;;9.70;91.30;;;;;;4096084;29;20218;-64
2023/01/02 09:50:04;;;;;;;9.00;5.13;;;9.90;91.10;;;;;;4113732;28;20203;-64
2023/01/02 09:52:07;;;;;;;6.47;4.17;;;9.90;90.40;;;;;;4096561;28;20327;-64
2023/01/02 09:54:26;;;;;;;9.43;6.37;;;9.90;90.80;;;;;;4096563;29;20251;-64
2023/01/02 09:56:33;;;;;;;7.50;4.90;;;10.30;89.60;;;;;;4113182;28;20202;-64
2023/01/02 09:58:54;;;;;;;14.23;7.47;;;10.10;90.00;;;;;;4113712;28;20700;-64
2023/01/02 10:00:56;;;;;;;11.37;6.70;;;10.00;90.70;;;;;;4096371;29;20207;-64
2023/01/02 10:03:14;;;;;;;10.27;6.90;;;9.90;91.70;;;;;;4096454;29;20195;-64
2023/01/02 10:05:28;;;;;;;8.53;5.50;;;10.30;91.30;;;;;;4113864;28;20172;-64
2023/01/02 10:07:43;;;;;;;7.03;4.57;;;10.80;87.30;;;;;;4112881;28;20209;-65
2023/01/02 10:10:02;;;;;;;3.93;2.60;;;11.30;84.80;;;;;;4096452;29;20207;-64
2023/01/02 10:12:28;;;;;;;4.63;2.33;;;11.40;75.50;;;;;;4096525;29;20179;-65
2023/01/02 10:14:47;;;;;;;7.40;2.70;;;12.00;63.10;;;;;;4110469;28;20211;-64
2023/01/02 10:16:54;;;;;;;8.30;3.50;;;12.90;57.20;;;;;;4095725;29;20215;-63
2023/01/02 10:18:55;;;;;;;5.17;2.63;;;13.20;54.80;;;;;;4113568;28;20261;-64
2023/01/02 10:21:16;;;;;;;6.40;2.70;;;13.20;55.00;;;;;;4113799;28;20206;-63
2023/01/02 10:23:25;;;;;;;8.77;3.43;;;13.30;52.40;;;;;;4096330;29;20664;-64
2023/01/02 10:25:56;;;;;;;7.50;1.60;;;13.10;52.90;;;;;;4096155;29;20218;-64
2023/01/02 10:28:23;;;;;;;6.03;2.10;;;13.10;52.00;;;;;;4083749;29;20207;-64
2023/01/02 10:30:26;;;;;;;5.93;1.60;;;13.20;51.00;;;;;;4113686;28;20222;-63
2023/01/02 10:32:29;;;;;;;10.07;1.90;;;13.40;49.80;;;;;;4096578;29;20187;-64
2023/01/02 10:34:42;;;;;;;7.93;1.90;;;13.70;49.40;;;;;;4096381;29;20191;-64
2023/01/02 10:36:45;;;;;;;6.20;1.63;;;14.00;48.20;;;;;;4112528;28;20218;-63
2023/01/02 10:38:46;;;;;;;5.70;1.50;;;14.20;46.60;;;;;;4113292;28;20591;-64
2023/01/02 10:40:49;;;;;;;7.27;1.70;;;14.30;45.90;;;;;;4096044;29;20219;-64
2023/01/02 10:42:56;;;;;;;6.10;1.60;;;14.50;45.40;;;;;;4120943;28;20190;-64
2023/01/02 10:44:57;;;;;;;6.37;1.57;;;14.60;46.00;;;;;;4129145;28;20540;-64
2023/01/02 10:47:21;;;;;;;7.77;2.03;;;14.80;45.50;;;;;;4111190;28;20191;-64
2023/01/02 10:49:24;;;;;;;4.43;1.63;;;14.70;45.80;;;;;;4129192;28;20688;-64
2023/01/02 10:51:25;;;;;;;4.30;1.60;;;14.40;45.80;;;;;;4112135;28;20254;-64
2023/01/02 10:53:36;;;;;;;5.73;1.70;;;14.20;46.60;;;;;;4112131;28;20835;-64
2023/01/02 10:55:42;;;;;;;5.63;1.67;;;14.50;46.50;;;;;;4129417;28;20184;-64
2023/01/02 10:57:50;;;;;;;8.70;1.97;;;14.90;46.50;;;;;;4095577;29;20187;-64
2023/01/02 10:59:58;;;;;;;7.47;2.43;;;15.20;46.10;;;;;;4112281;28;20725;-64
2023/01/02 11:01:59;;;;;;;5.97;1.67;;;15.20;45.40;;;;;;4129621;28;20192;-64